sensor_id;sensor_type;location;lat;lon;timestamp;pressure;altitude;pressure_sealevel;temperature;humidity
72370;BME280;60343;-32.030;115.880;2022-11-15T00:00:58;101928.38;;;20.19;46.23
72370;BME280;60343;-32.030;115.880;2022-11-15T00:03:27;101922.78;;;20.40;45.25
72370;BME280;60343;-32.030;115.880;2022-11-15T00:06:02;101913.53;;;20.74;44.31
72370;BME280;60343;-32.030;115.880;2022-11-15T00:08:31;101914.25;;;21.08;44.01
72370;BME280;60343;-32.030;115.880;2022-11-15T00:11:00;101918.13;;;21.45;42.00
72370;BME280;60343;-32.030;115.880;2022-11-15T00:13:28;101926.69;;;21.55;40.86
72370;BME280;60343;-32.030;115.880;2022-11-15T00:16:05;101918.97;;;21.52;41.55
72370;BME280;60343;-32.030;115.880;2022-11-15T00:18:33;101908.06;;;21.83;41.72
72370;BME280;60343;-32.030;115.880;2022-11-15T00:21:05;101912.19;;;22.23;40.94
72370;BME280;60343;-32.030;115.880;2022-11-15T00:23:33;101905.47;;;22.69;38.89
72370;BME280;60343;-32.030;115.880;2022-11-15T00:26:01;101903.09;;;23.16;38.28
72370;BME280;60343;-32.030;115.880;2022-11-15T00:28:29;101903.00;;;23.40;37.06
72370;BME280;60343;-32.030;115.880;2022-11-15T00:31:08;101899.09;;;23.66;36.67
72370;BME280;60343;-32.030;115.880;2022-11-15T00:33:38;101891.78;;;23.78;36.11
72370;BME280;60343;-32.030;115.880;2022-11-15T00:36:07;101887.19;;;24.02;35.87
72370;BME280;60343;-32.030;115.880;2022-11-15T00:38:36;101878.94;;;24.44;35.39
72370;BME280;60343;-32.030;115.880;2022-11-15T00:41:05;101876.78;;;24.46;35.00
72370;BME280;60343;-32.030;115.880;2022-11-15T00:43:33;101871.06;;;24.47;34.74
72370;BME280;60343;-32.030;115.880;2022-11-15T00:46:06;101872.59;;;24.55;34.98
72370;BME280;60343;-32.030;115.880;2022-11-15T00:48:34;101867.22;;;24.83;34.52
72370;BME280;60343;-32.030;115.880;2022-11-15T00:51:02;101860.78;;;25.01;34.29
72370;BME280;60343;-32.030;115.880;2022-11-15T00:53:30;101858.94;;;25.46;33.31
72370;BME280;60343;-32.030;115.880;2022-11-15T00:55:57;101857.13;;;25.63;32.59
72370;BME280;60343;-32.030;115.880;2022-11-15T00:58:25;101853.00;;;25.94;32.32
72370;BME280;60343;-32.030;115.880;2022-11-15T01:00:53;101840.28;;;26.05;31.62
72370;BME280;60343;-32.030;115.880;2022-11-15T01:03:26;101845.69;;;26.33;32.12
72370;BME280;60343;-32.030;115.880;2022-11-15T01:05:56;101834.41;;;26.52;31.29
72370;BME280;60343;-32.030;115.880;2022-11-15T01:08:26;101836.50;;;26.44;31.20
72370;BME280;60343;-32.030;115.880;2022-11-15T01:10:53;101817.91;;;26.52;30.11
72370;BME280;60343;-32.030;115.880;2022-11-15T01:13:21;101824.22;;;26.69;30.27
72370;BME280;60343;-32.030;115.880;2022-11-15T01:15:48;101820.94;;;26.72;30.26
72370;BME280;60343;-32.030;115.880;2022-11-15T01:18:16;101816.31;;;26.94;29.98
72370;BME280;60343;-32.030;115.880;2022-11-15T01:20:49;101811.50;;;27.06;29.81
72370;BME280;60343;-32.030;115.880;2022-11-15T01:23:17;101804.75;;;27.41;29.67
72370;BME280;60343;-32.030;115.880;2022-11-15T01:25:45;101802.78;;;27.36;30.45
72370;BME280;60343;-32.030;115.880;2022-11-15T01:28:12;101789.78;;;27.58;28.82
72370;BME280;60343;-32.030;115.880;2022-11-15T01:30:40;101783.13;;;27.81;28.86
72370;BME280;60343;-32.030;115.880;2022-11-15T01:33:08;101778.47;;;27.87;28.67
72370;BME280;60343;-32.030;115.880;2022-11-15T01:35:39;101776.28;;;27.57;28.82
72370;BME280;60343;-32.030;115.880;2022-11-15T01:38:12;101772.78;;;27.61;29.53
72370;BME280;60343;-32.030;115.880;2022-11-15T01:40:39;101769.44;;;27.32;29.09
72370;BME280;60343;-32.030;115.880;2022-11-15T01:43:24;101776.34;;;27.35;29.46
72370;BME280;60343;-32.030;115.880;2022-11-15T01:45:54;101775.19;;;27.58;29.93
72370;BME280;60343;-32.030;115.880;2022-11-15T01:48:27;101775.63;;;27.77;29.06
72370;BME280;60343;-32.030;115.880;2022-11-15T01:50:57;101767.66;;;27.75;27.66
72370;BME280;60343;-32.030;115.880;2022-11-15T01:53:32;101762.22;;;27.85;27.34
72370;BME280;60343;-32.030;115.880;2022-11-15T01:56:03;101765.94;;;28.01;27.83
72370;BME280;60343;-32.030;115.880;2022-11-15T01:58:32;101761.25;;;28.01;28.20
72370;BME280;60343;-32.030;115.880;2022-11-15T02:01:00;101755.31;;;27.83;28.24
72370;BME280;60343;-32.030;115.880;2022-11-15T02:03:34;101764.06;;;27.74;28.55
72370;BME280;60343;-32.030;115.880;2022-11-15T02:06:05;101754.22;;;27.84;28.20
72370;BME280;60343;-32.030;115.880;2022-11-15T02:08:38;101750.81;;;28.08;28.76
72370;BME280;60343;-32.030;115.880;2022-11-15T02:11:08;101741.47;;;28.09;27.28
72370;BME280;60343;-32.030;115.880;2022-11-15T02:13:36;101736.88;;;28.20;28.05
72370;BME280;60343;-32.030;115.880;2022-11-15T02:16:12;101732.19;;;28.21;27.81
72370;BME280;60343;-32.030;115.880;2022-11-15T02:18:44;101729.84;;;28.02;27.03
72370;BME280;60343;-32.030;115.880;2022-11-15T02:21:23;101722.56;;;27.81;27.56
72370;BME280;60343;-32.030;115.880;2022-11-15T02:27:16;101724.34;;;28.02;28.07
72370;BME280;60343;-32.030;115.880;2022-11-15T02:32:43;101715.22;;;27.97;28.61
72370;BME280;60343;-32.030;115.880;2022-11-15T02:35:19;101702.44;;;28.23;26.64
72370;BME280;60343;-32.030;115.880;2022-11-15T02:37:54;101711.91;;;28.37;27.01
72370;BME280;60343;-32.030;115.880;2022-11-15T02:40:30;101709.16;;;28.37;26.27
72370;BME280;60343;-32.030;115.880;2022-11-15T02:43:08;101692.34;;;28.43;27.12
72370;BME280;60343;-32.030;115.880;2022-11-15T02:45:41;101691.53;;;28.43;27.23
72370;BME280;60343;-32.030;115.880;2022-11-15T02:48:17;101684.38;;;28.52;27.39
72370;BME280;60343;-32.030;115.880;2022-11-15T02:50:46;101686.97;;;28.74;26.87
72370;BME280;60343;-32.030;115.880;2022-11-15T02:53:15;101682.06;;;28.91;26.81
72370;BME280;60343;-32.030;115.880;2022-11-15T02:55:46;101677.31;;;28.71;26.05
72370;BME280;60343;-32.030;115.880;2022-11-15T02:58:35;101665.69;;;28.64;26.49
72370;BME280;60343;-32.030;115.880;2022-11-15T03:01:09;101660.66;;;28.31;27.20
72370;BME280;60343;-32.030;115.880;2022-11-15T03:03:56;101658.47;;;28.48;26.75
72370;BME280;60343;-32.030;115.880;2022-11-15T03:06:32;101655.84;;;28.78;24.79
72370;BME280;60343;-32.030;115.880;2022-11-15T03:09:05;101647.59;;;28.98;25.39
72370;BME280;60343;-32.030;115.880;2022-11-15T03:11:34;101642.63;;;29.11;24.44
72370;BME280;60343;-32.030;115.880;2022-11-15T03:14:12;101631.47;;;28.45;25.11
72370;BME280;60343;-32.030;115.880;2022-11-15T03:16:46;101624.31;;;28.39;27.20
72370;BME280;60343;-32.030;115.880;2022-11-15T03:19:26;101617.53;;;28.77;26.18
72370;BME280;60343;-32.030;115.880;2022-11-15T03:21:59;101608.97;;;28.93;24.32
72370;BME280;60343;-32.030;115.880;2022-11-15T03:24:29;101618.38;;;29.33;23.64
72370;BME280;60343;-32.030;115.880;2022-11-15T03:27:00;101601.78;;;29.53;23.52
72370;BME280;60343;-32.030;115.880;2022-11-15T03:29:33;101603.44;;;29.54;24.29
72370;BME280;60343;-32.030;115.880;2022-11-15T03:32:03;101596.84;;;29.40;22.92
72370;BME280;60343;-32.030;115.880;2022-11-15T03:34:41;101588.31;;;29.31;21.84
72370;BME280;60343;-32.030;115.880;2022-11-15T03:37:10;101586.06;;;29.43;23.35
72370;BME280;60343;-32.030;115.880;2022-11-15T03:39:39;101578.63;;;29.39;22.27
72370;BME280;60343;-32.030;115.880;2022-11-15T03:42:14;101578.63;;;29.49;22.57
72370;BME280;60343;-32.030;115.880;2022-11-15T03:44:52;101570.50;;;29.78;23.37
72370;BME280;60343;-32.030;115.880;2022-11-15T03:47:25;101564.84;;;30.18;22.63
72370;BME280;60343;-32.030;115.880;2022-11-15T03:50:04;101552.06;;;30.33;20.03
72370;BME280;60343;-32.030;115.880;2022-11-15T03:52:35;101546.81;;;30.31;20.58
72370;BME280;60343;-32.030;115.880;2022-11-15T03:55:05;101548.09;;;30.44;21.85
72370;BME280;60343;-32.030;115.880;2022-11-15T03:57:33;101550.41;;;30.32;22.38
72370;BME280;60343;-32.030;115.880;2022-11-15T04:00:00;101541.22;;;30.46;21.29
72370;BME280;60343;-32.030;115.880;2022-11-15T04:02:28;101544.78;;;30.52;20.27
72370;BME280;60343;-32.030;115.880;2022-11-15T04:05:01;101526.81;;;30.49;19.35
72370;BME280;60343;-32.030;115.880;2022-11-15T04:07:29;101529.41;;;30.69;18.86
72370;BME280;60343;-32.030;115.880;2022-11-15T04:09:56;101528.84;;;30.73;19.80
72370;BME280;60343;-32.030;115.880;2022-11-15T04:12:24;101521.03;;;30.80;19.96
72370;BME280;60343;-32.030;115.880;2022-11-15T04:14:52;101518.25;;;30.80;20.36
72370;BME280;60343;-32.030;115.880;2022-11-15T04:17:20;101514.28;;;30.62;21.88
72370;BME280;60343;-32.030;115.880;2022-11-15T04:19:47;101516.81;;;30.53;22.20
72370;BME280;60343;-32.030;115.880;2022-11-15T04:22:20;101502.13;;;30.19;20.73
72370;BME280;60343;-32.030;115.880;2022-11-15T04:24:48;101508.38;;;30.35;22.03
72370;BME280;60343;-32.030;115.880;2022-11-15T04:27:16;101509.66;;;30.52;21.03
72370;BME280;60343;-32.030;115.880;2022-11-15T04:29:44;101490.38;;;30.47;20.78
72370;BME280;60343;-32.030;115.880;2022-11-15T04:32:11;101491.78;;;30.35;21.04
72370;BME280;60343;-32.030;115.880;2022-11-15T04:34:39;101490.84;;;30.54;20.64
72370;BME280;60343;-32.030;115.880;2022-11-15T04:37:06;101482.88;;;30.82;19.94
72370;BME280;60343;-32.030;115.880;2022-11-15T04:39:40;101476.06;;;31.03;19.83
72370;BME280;60343;-32.030;115.880;2022-11-15T04:42:08;101475.69;;;31.09;18.89
72370;BME280;60343;-32.030;115.880;2022-11-15T04:44:36;101467.69;;;31.32;20.42
72370;BME280;60343;-32.030;115.880;2022-11-15T04:47:04;101460.38;;;31.65;19.13
72370;BME280;60343;-32.030;115.880;2022-11-15T04:49:32;101467.81;;;31.88;19.21
72370;BME280;60343;-32.030;115.880;2022-11-15T04:51:59;101464.81;;;31.84;18.68
72370;BME280;60343;-32.030;115.880;2022-11-15T04:54:27;101461.97;;;31.89;19.07
72370;BME280;60343;-32.030;115.880;2022-11-15T04:57:00;101457.38;;;31.61;20.15
72370;BME280;60343;-32.030;115.880;2022-11-15T04:59:28;101447.38;;;31.41;19.63
72370;BME280;60343;-32.030;115.880;2022-11-15T05:01:55;101450.50;;;31.59;19.71
72370;BME280;60343;-32.030;115.880;2022-11-15T05:04:23;101437.94;;;31.85;19.39
72370;BME280;60343;-32.030;115.880;2022-11-15T05:06:51;101435.03;;;31.76;19.79
72370;BME280;60343;-32.030;115.880;2022-11-15T05:09:19;101428.88;;;31.98;19.63
72370;BME280;60343;-32.030;115.880;2022-11-15T05:11:47;101436.03;;;32.36;19.88
72370;BME280;60343;-32.030;115.880;2022-11-15T05:14:21;101434.94;;;32.38;19.75
72370;BME280;60343;-32.030;115.880;2022-11-15T05:16:48;101435.00;;;32.65;19.21
72370;BME280;60343;-32.030;115.880;2022-11-15T05:19:16;101420.75;;;32.71;18.26
72370;BME280;60343;-32.030;115.880;2022-11-15T05:21:43;101425.19;;;32.72;19.03
72370;BME280;60343;-32.030;115.880;2022-11-15T05:24:11;101422.31;;;33.05;18.68
72370;BME280;60343;-32.030;115.880;2022-11-15T05:26:39;101419.28;;;33.34;17.21
72370;BME280;60343;-32.030;115.880;2022-11-15T05:29:08;101415.47;;;33.30;17.04
72370;BME280;60343;-32.030;115.880;2022-11-15T05:31:42;101411.84;;;33.43;16.63
72370;BME280;60343;-32.030;115.880;2022-11-15T05:34:09;101399.53;;;33.22;16.55
72370;BME280;60343;-32.030;115.880;2022-11-15T05:36:38;101394.69;;;33.13;16.55
72370;BME280;60343;-32.030;115.880;2022-11-15T05:39:08;101386.25;;;33.32;16.71
72370;BME280;60343;-32.030;115.880;2022-11-15T05:41:38;101387.72;;;33.30;16.45
72370;BME280;60343;-32.030;115.880;2022-11-15T05:44:09;101385.13;;;33.06;16.67
72370;BME280;60343;-32.030;115.880;2022-11-15T05:46:43;101382.44;;;33.42;16.42
72370;BME280;60343;-32.030;115.880;2022-11-15T05:49:13;101376.06;;;33.41;15.69
72370;BME280;60343;-32.030;115.880;2022-11-15T05:51:43;101369.91;;;33.80;16.69
72370;BME280;60343;-32.030;115.880;2022-11-15T05:54:12;101368.97;;;33.85;16.65
72370;BME280;60343;-32.030;115.880;2022-11-15T05:56:40;101368.34;;;34.10;15.75
72370;BME280;60343;-32.030;115.880;2022-11-15T05:59:08;101363.59;;;34.33;16.75
72370;BME280;60343;-32.030;115.880;2022-11-15T06:01:42;101354.13;;;34.34;16.67
72370;BME280;60343;-32.030;115.880;2022-11-15T06:04:10;101344.97;;;34.33;16.64
72370;BME280;60343;-32.030;115.880;2022-11-15T06:06:37;101336.72;;;34.20;16.35
72370;BME280;60343;-32.030;115.880;2022-11-15T06:09:05;101325.59;;;34.20;17.10
72370;BME280;60343;-32.030;115.880;2022-11-15T06:11:33;101317.31;;;34.28;17.14
72370;BME280;60343;-32.030;115.880;2022-11-15T06:14:01;101311.28;;;34.35;16.20
72370;BME280;60343;-32.030;115.880;2022-11-15T06:16:28;101303.63;;;34.40;16.38
72370;BME280;60343;-32.030;115.880;2022-11-15T06:19:01;101310.06;;;34.58;15.44
72370;BME280;60343;-32.030;115.880;2022-11-15T06:21:32;101308.03;;;34.81;15.68
72370;BME280;60343;-32.030;115.880;2022-11-15T06:23:59;101302.69;;;34.93;15.97
72370;BME280;60343;-32.030;115.880;2022-11-15T06:26:27;101307.25;;;34.80;14.42
72370;BME280;60343;-32.030;115.880;2022-11-15T06:28:55;101301.06;;;35.01;14.59
72370;BME280;60343;-32.030;115.880;2022-11-15T06:31:22;101288.69;;;35.24;14.97
72370;BME280;60343;-32.030;115.880;2022-11-15T06:33:50;101287.16;;;35.09;14.41
72370;BME280;60343;-32.030;115.880;2022-11-15T06:36:23;101283.13;;;35.24;14.16
72370;BME280;60343;-32.030;115.880;2022-11-15T06:38:51;101283.94;;;35.24;14.38
72370;BME280;60343;-32.030;115.880;2022-11-15T06:41:18;101273.41;;;34.96;15.20
72370;BME280;60343;-32.030;115.880;2022-11-15T06:43:46;101275.16;;;34.74;16.27
72370;BME280;60343;-32.030;115.880;2022-11-15T06:46:14;101260.72;;;34.24;18.39
72370;BME280;60343;-32.030;115.880;2022-11-15T06:48:41;101256.66;;;34.08;20.09
72370;BME280;60343;-32.030;115.880;2022-11-15T06:51:09;101275.13;;;33.82;18.97
72370;BME280;60343;-32.030;115.880;2022-11-15T06:53:42;101263.97;;;33.73;19.22
72370;BME280;60343;-32.030;115.880;2022-11-15T06:56:10;101249.91;;;33.70;19.86
72370;BME280;60343;-32.030;115.880;2022-11-15T06:58:37;101251.22;;;33.94;18.74
72370;BME280;60343;-32.030;115.880;2022-11-15T07:01:06;101243.75;;;33.81;19.33
72370;BME280;60343;-32.030;115.880;2022-11-15T07:03:36;101244.00;;;33.49;19.19
72370;BME280;60343;-32.030;115.880;2022-11-15T07:06:04;101241.47;;;33.61;19.14
72370;BME280;60343;-32.030;115.880;2022-11-15T07:08:32;101229.88;;;33.81;18.20
72370;BME280;60343;-32.030;115.880;2022-11-15T07:11:07;101226.84;;;33.25;18.93
72370;BME280;60343;-32.030;115.880;2022-11-15T07:13:36;101226.72;;;33.30;19.19
72370;BME280;60343;-32.030;115.880;2022-11-15T07:16:05;101227.84;;;33.29;19.26
72370;BME280;60343;-32.030;115.880;2022-11-15T07:18:34;101224.47;;;32.68;20.21
72370;BME280;60343;-32.030;115.880;2022-11-15T07:21:03;101216.13;;;32.55;20.94
72370;BME280;60343;-32.030;115.880;2022-11-15T07:23:31;101219.31;;;32.34;20.45
72370;BME280;60343;-32.030;115.880;2022-11-15T07:26:04;101224.25;;;32.65;20.17
72370;BME280;60343;-32.030;115.880;2022-11-15T07:28:32;101218.72;;;32.78;20.49
72370;BME280;60343;-32.030;115.880;2022-11-15T07:31:02;101220.97;;;32.35;20.99
72370;BME280;60343;-32.030;115.880;2022-11-15T07:33:30;101211.09;;;32.57;21.47
72370;BME280;60343;-32.030;115.880;2022-11-15T07:36:00;101213.25;;;32.60;21.02
72370;BME280;60343;-32.030;115.880;2022-11-15T07:38:28;101211.94;;;32.16;21.83
72370;BME280;60343;-32.030;115.880;2022-11-15T07:40:58;101206.41;;;32.16;22.00
72370;BME280;60343;-32.030;115.880;2022-11-15T07:43:31;101206.47;;;31.98;21.52
72370;BME280;60343;-32.030;115.880;2022-11-15T07:46:03;101201.13;;;32.01;21.98
72370;BME280;60343;-32.030;115.880;2022-11-15T07:48:31;101201.59;;;31.89;21.45
72370;BME280;60343;-32.030;115.880;2022-11-15T07:50:59;101199.56;;;31.95;21.76
72370;BME280;60343;-32.030;115.880;2022-11-15T07:53:27;101195.56;;;31.74;21.71
72370;BME280;60343;-32.030;115.880;2022-11-15T07:55:54;101198.00;;;31.43;21.24
72370;BME280;60343;-32.030;115.880;2022-11-15T07:58:22;101200.84;;;31.19;21.77
72370;BME280;60343;-32.030;115.880;2022-11-15T08:00:55;101200.22;;;30.85;21.44
72370;BME280;60343;-32.030;115.880;2022-11-15T08:03:23;101195.97;;;30.92;21.72
72370;BME280;60343;-32.030;115.880;2022-11-15T08:05:54;101188.69;;;30.59;22.35
72370;BME280;60343;-32.030;115.880;2022-11-15T08:08:21;101184.13;;;30.02;23.68
72370;BME280;60343;-32.030;115.880;2022-11-15T08:10:49;101182.34;;;30.11;24.11
72370;BME280;60343;-32.030;115.880;2022-11-15T08:13:17;101183.69;;;30.13;24.08
72370;BME280;60343;-32.030;115.880;2022-11-15T08:15:45;101188.81;;;30.01;23.85
72370;BME280;60343;-32.030;115.880;2022-11-15T08:18:18;101185.00;;;29.63;24.82
72370;BME280;60343;-32.030;115.880;2022-11-15T08:20:45;101186.47;;;29.22;25.88
72370;BME280;60343;-32.030;115.880;2022-11-15T08:23:13;101193.88;;;28.82;26.43
72370;BME280;60343;-32.030;115.880;2022-11-15T08:25:41;101201.53;;;28.95;25.84
72370;BME280;60343;-32.030;115.880;2022-11-15T08:28:11;101188.81;;;28.99;26.06
72370;BME280;60343;-32.030;115.880;2022-11-15T08:30:40;101191.59;;;28.94;26.16
72370;BME280;60343;-32.030;115.880;2022-11-15T08:33:16;101187.59;;;28.72;26.90
72370;BME280;60343;-32.030;115.880;2022-11-15T08:35:44;101181.88;;;28.53;27.52
72370;BME280;60343;-32.030;115.880;2022-11-15T08:38:12;101186.88;;;28.46;27.77
72370;BME280;60343;-32.030;115.880;2022-11-15T08:40:40;101196.81;;;28.42;27.26
72370;BME280;60343;-32.030;115.880;2022-11-15T08:43:08;101185.31;;;28.14;27.51
72370;BME280;60343;-32.030;115.880;2022-11-15T08:45:36;101194.41;;;28.05;27.85
72370;BME280;60343;-32.030;115.880;2022-11-15T08:48:04;101193.03;;;28.02;28.37
72370;BME280;60343;-32.030;115.880;2022-11-15T08:50:37;101185.34;;;27.99;28.24
72370;BME280;60343;-32.030;115.880;2022-11-15T08:53:08;101181.56;;;27.65;28.70
72370;BME280;60343;-32.030;115.880;2022-11-15T08:55:37;101193.66;;;27.54;28.83
72370;BME280;60343;-32.030;115.880;2022-11-15T08:58:05;101177.94;;;27.29;29.16
72370;BME280;60343;-32.030;115.880;2022-11-15T09:00:36;101187.53;;;27.06;30.17
72370;BME280;60343;-32.030;115.880;2022-11-15T09:03:05;101180.59;;;26.83;30.52
72370;BME280;60343;-32.030;115.880;2022-11-15T09:05:38;101171.50;;;26.73;30.43
72370;BME280;60343;-32.030;115.880;2022-11-15T09:08:06;101170.09;;;26.60;30.40
72370;BME280;60343;-32.030;115.880;2022-11-15T09:10:34;101175.81;;;26.48;30.46
72370;BME280;60343;-32.030;115.880;2022-11-15T09:13:02;101175.50;;;26.35;30.71
72370;BME280;60343;-32.030;115.880;2022-11-15T09:15:29;101187.47;;;26.19;30.47
72370;BME280;60343;-32.030;115.880;2022-11-15T09:17:59;101173.59;;;25.93;31.04
72370;BME280;60343;-32.030;115.880;2022-11-15T09:20:27;101183.13;;;25.86;31.71
72370;BME280;60343;-32.030;115.880;2022-11-15T09:23:00;101169.31;;;25.71;31.52
72370;BME280;60343;-32.030;115.880;2022-11-15T09:25:31;101175.38;;;25.73;31.40
72370;BME280;60343;-32.030;115.880;2022-11-15T09:27:59;101174.53;;;25.72;31.62
72370;BME280;60343;-32.030;115.880;2022-11-15T09:30:27;101173.13;;;25.65;31.48
72370;BME280;60343;-32.030;115.880;2022-11-15T09:32:54;101178.03;;;25.62;32.07
72370;BME280;60343;-32.030;115.880;2022-11-15T09:35:22;101174.72;;;25.60;31.69
72370;BME280;60343;-32.030;115.880;2022-11-15T09:37:50;101174.94;;;25.54;32.03
72370;BME280;60343;-32.030;115.880;2022-11-15T09:40:23;101172.91;;;25.39;31.64
72370;BME280;60343;-32.030;115.880;2022-11-15T09:43:04;101179.44;;;25.33;31.88
72370;BME280;60343;-32.030;115.880;2022-11-15T09:45:52;101182.91;;;25.24;31.65
72370;BME280;60343;-32.030;115.880;2022-11-15T09:48:45;101184.00;;;24.96;32.47
72370;BME280;60343;-32.030;115.880;2022-11-15T09:51:30;101184.06;;;24.79;33.15
72370;BME280;60343;-32.030;115.880;2022-11-15T09:54:04;101192.88;;;24.59;33.81
72370;BME280;60343;-32.030;115.880;2022-11-15T09:56:38;101191.22;;;24.58;34.09
72370;BME280;60343;-32.030;115.880;2022-11-15T09:59:23;101194.09;;;24.47;34.10
72370;BME280;60343;-32.030;115.880;2022-11-15T10:01:59;101189.31;;;24.37;34.48
72370;BME280;60343;-32.030;115.880;2022-11-15T10:04:29;101191.16;;;24.31;34.65
72370;BME280;60343;-32.030;115.880;2022-11-15T10:07:04;101195.34;;;24.17;34.83
72370;BME280;60343;-32.030;115.880;2022-11-15T10:09:39;101197.84;;;24.02;34.88
72370;BME280;60343;-32.030;115.880;2022-11-15T10:12:16;101189.66;;;23.85;35.37
72370;BME280;60343;-32.030;115.880;2022-11-15T10:14:44;101192.16;;;23.70;36.07
72370;BME280;60343;-32.030;115.880;2022-11-15T10:17:36;101191.44;;;23.58;35.84
72370;BME280;60343;-32.030;115.880;2022-11-15T10:20:13;101199.63;;;23.58;35.95
72370;BME280;60343;-32.030;115.880;2022-11-15T10:22:47;101199.19;;;23.49;35.96
72370;BME280;60343;-32.030;115.880;2022-11-15T10:25:20;101195.69;;;23.37;36.36
72370;BME280;60343;-32.030;115.880;2022-11-15T10:28:09;101198.41;;;23.21;36.99
72370;BME280;60343;-32.030;115.880;2022-11-15T10:30:39;101204.50;;;23.11;37.68
72370;BME280;60343;-32.030;115.880;2022-11-15T10:33:25;101206.63;;;22.92;38.48
72370;BME280;60343;-32.030;115.880;2022-11-15T10:36:18;101206.75;;;22.86;39.22
72370;BME280;60343;-32.030;115.880;2022-11-15T10:39:00;101211.53;;;22.79;39.66
72370;BME280;60343;-32.030;115.880;2022-11-15T10:41:39;101205.25;;;22.66;39.58
72370;BME280;60343;-32.030;115.880;2022-11-15T10:53:33;101219.00;;;22.32;41.30
72370;BME280;60343;-32.030;115.880;2022-11-15T10:56:08;101220.44;;;22.22;41.63
72370;BME280;60343;-32.030;115.880;2022-11-15T10:58:41;101226.94;;;22.10;42.04
72370;BME280;60343;-32.030;115.880;2022-11-15T11:01:17;101219.25;;;22.07;42.33
72370;BME280;60343;-32.030;115.880;2022-11-15T11:03:59;101222.59;;;21.97;42.71
72370;BME280;60343;-32.030;115.880;2022-11-15T11:06:27;101224.72;;;21.95;43.04
72370;BME280;60343;-32.030;115.880;2022-11-15T11:09:02;101223.38;;;21.86;43.63
72370;BME280;60343;-32.030;115.880;2022-11-15T11:11:45;101225.13;;;21.69;43.73
72370;BME280;60343;-32.030;115.880;2022-11-15T11:14:17;101225.59;;;21.54;44.31
72370;BME280;60343;-32.030;115.880;2022-11-15T11:16:50;101228.56;;;21.53;44.68
72370;BME280;60343;-32.030;115.880;2022-11-15T11:19:38;101228.88;;;21.45;45.03
72370;BME280;60343;-32.030;115.880;2022-11-15T11:22:15;101223.44;;;21.45;45.02
72370;BME280;60343;-32.030;115.880;2022-11-15T11:25:07;101225.72;;;21.48;45.53
72370;BME280;60343;-32.030;115.880;2022-11-15T11:27:44;101233.94;;;21.29;45.79
72370;BME280;60343;-32.030;115.880;2022-11-15T11:30:20;101231.66;;;21.15;46.63
72370;BME280;60343;-32.030;115.880;2022-11-15T11:33:00;101235.25;;;21.27;46.05
72370;BME280;60343;-32.030;115.880;2022-11-15T11:35:34;101231.09;;;21.24;46.00
72370;BME280;60343;-32.030;115.880;2022-11-15T11:38:17;101239.94;;;21.20;46.06
72370;BME280;60343;-32.030;115.880;2022-11-15T11:41:00;101238.19;;;21.25;45.47
72370;BME280;60343;-32.030;115.880;2022-11-15T11:43:40;101245.41;;;21.20;45.70
72370;BME280;60343;-32.030;115.880;2022-11-15T11:46:26;101249.09;;;21.25;46.01
72370;BME280;60343;-32.030;115.880;2022-11-15T11:48:58;101242.38;;;21.10;45.92
72370;BME280;60343;-32.030;115.880;2022-11-15T11:51:28;101247.16;;;21.14;46.10
72370;BME280;60343;-32.030;115.880;2022-11-15T11:53:58;101252.41;;;21.09;46.02
72370;BME280;60343;-32.030;115.880;2022-11-15T11:56:35;101254.41;;;21.02;46.46
72370;BME280;60343;-32.030;115.880;2022-11-15T11:59:10;101258.50;;;20.93;46.97
72370;BME280;60343;-32.030;115.880;2022-11-15T12:01:43;101254.44;;;20.84;47.30
72370;BME280;60343;-32.030;115.880;2022-11-15T12:04:16;101261.41;;;20.80;47.32
72370;BME280;60343;-32.030;115.880;2022-11-15T12:06:50;101258.47;;;20.81;47.76
72370;BME280;60343;-32.030;115.880;2022-11-15T12:09:23;101261.03;;;20.76;47.80
72370;BME280;60343;-32.030;115.880;2022-11-15T12:12:04;101259.00;;;20.72;48.05
72370;BME280;60343;-32.030;115.880;2022-11-15T12:14:38;101255.00;;;20.56;48.34
72370;BME280;60343;-32.030;115.880;2022-11-15T12:17:11;101255.69;;;20.51;48.58
72370;BME280;60343;-32.030;115.880;2022-11-15T12:19:46;101256.59;;;20.45;49.00
72370;BME280;60343;-32.030;115.880;2022-11-15T12:22:19;101265.47;;;20.34;49.49
72370;BME280;60343;-32.030;115.880;2022-11-15T12:24:52;101264.25;;;20.30;49.63
72370;BME280;60343;-32.030;115.880;2022-11-15T12:27:36;101266.19;;;20.23;49.68
72370;BME280;60343;-32.030;115.880;2022-11-15T12:30:08;101261.44;;;20.19;50.11
72370;BME280;60343;-32.030;115.880;2022-11-15T12:32:38;101266.34;;;20.10;50.36
72370;BME280;60343;-32.030;115.880;2022-11-15T12:35:21;101257.63;;;20.01;50.56
72370;BME280;60343;-32.030;115.880;2022-11-15T12:37:51;101265.38;;;19.98;50.99
72370;BME280;60343;-32.030;115.880;2022-11-15T12:40:25;101263.56;;;19.92;51.34
72370;BME280;60343;-32.030;115.880;2022-11-15T12:46:08;101278.41;;;19.64;52.10
72370;BME280;60343;-32.030;115.880;2022-11-15T12:48:49;101263.00;;;19.58;52.34
72370;BME280;60343;-32.030;115.880;2022-11-15T12:51:19;101263.66;;;19.54;52.85
72370;BME280;60343;-32.030;115.880;2022-11-15T12:53:47;101267.22;;;19.54;52.48
72370;BME280;60343;-32.030;115.880;2022-11-15T12:56:25;101270.97;;;19.53;52.71
72370;BME280;60343;-32.030;115.880;2022-11-15T12:58:59;101267.50;;;19.40;52.82
72370;BME280;60343;-32.030;115.880;2022-11-15T13:04:25;101269.03;;;19.29;53.70